sensor_id;sensor_type;location;lat;lon;timestamp;pressure;altitude;pressure_sealevel;temperature;humidity
24230;BME280;12362;50.004;8.006;2023-06-14T00:01:24;100186.47;;;15.16;100.00
24230;BME280;12362;50.004;8.006;2023-06-14T00:03:50;100192.25;;;15.09;100.00
24230;BME280;12362;50.004;8.006;2023-06-14T00:06:16;100191.84;;;15.02;100.00
24230;BME280;12362;50.004;8.006;2023-06-14T00:08:42;100189.75;;;15.07;100.00
24230;BME280;12362;50.004;8.006;2023-06-14T00:11:08;100192.56;;;15.04;100.00
24230;BME280;12362;50.004;8.006;2023-06-14T00:13:33;100188.47;;;15.00;100.00
24230;BME280;12362;50.004;8.006;2023-06-14T00:15:59;100189.97;;;14.92;100.00
24230;BME280;12362;50.004;8.006;2023-06-14T00:18:24;100188.09;;;14.81;100.00
24230;BME280;12362;50.004;8.006;2023-06-14T00:20:51;100189.78;;;14.70;100.00
24230;BME280;12362;50.004;8.006;2023-06-14T00:23:17;100187.69;;;14.50;100.00
24230;BME280;12362;50.004;8.006;2023-06-14T00:25:43;100192.50;;;14.44;100.00
24230;BME280;12362;50.004;8.006;2023-06-14T00:28:08;100199.38;;;14.57;100.00
24230;BME280;12362;50.004;8.006;2023-06-14T00:30:34;100199.31;;;14.58;100.00
24230;BME280;12362;50.004;8.006;2023-06-14T00:33:01;100190.19;;;14.52;100.00
24230;BME280;12362;50.004;8.006;2023-06-14T00:35:27;100188.31;;;14.53;100.00
24230;BME280;12362;50.004;8.006;2023-06-14T00:37:53;100191.56;;;14.32;100.00
24230;BME280;12362;50.004;8.006;2023-06-14T00:40:20;100191.84;;;14.28;100.00
24230;BME280;12362;50.004;8.006;2023-06-14T00:42:45;100194.25;;;14.18;100.00
24230;BME280;12362;50.004;8.006;2023-06-14T00:45:12;100189.47;;;14.25;100.00
24230;BME280;12362;50.004;8.006;2023-06-14T00:47:38;100195.00;;;14.20;100.00
24230;BME280;12362;50.004;8.006;2023-06-14T00:50:07;100196.91;;;14.04;100.00
24230;BME280;12362;50.004;8.006;2023-06-14T00:52:33;100196.31;;;14.13;100.00
24230;BME280;12362;50.004;8.006;2023-06-14T00:55:00;100197.69;;;14.19;100.00
24230;BME280;12362;50.004;8.006;2023-06-14T00:57:28;100205.22;;;13.97;100.00
24230;BME280;12362;50.004;8.006;2023-06-14T00:59:55;100205.84;;;14.00;100.00
24230;BME280;12362;50.004;8.006;2023-06-14T01:02:20;100202.22;;;14.03;100.00
24230;BME280;12362;50.004;8.006;2023-06-14T01:04:48;100206.28;;;13.94;100.00
24230;BME280;12362;50.004;8.006;2023-06-14T01:07:25;100211.56;;;13.93;100.00
24230;BME280;12362;50.004;8.006;2023-06-14T01:10:26;100211.19;;;13.99;100.00
24230;BME280;12362;50.004;8.006;2023-06-14T01:15:46;100213.41;;;13.78;100.00
24230;BME280;12362;50.004;8.006;2023-06-14T01:18:12;100219.31;;;13.68;100.00
24230;BME280;12362;50.004;8.006;2023-06-14T01:20:45;100221.13;;;13.80;100.00
24230;BME280;12362;50.004;8.006;2023-06-14T01:23:21;100225.69;;;13.64;100.00
24230;BME280;12362;50.004;8.006;2023-06-14T01:25:48;100221.72;;;13.71;100.00
24230;BME280;12362;50.004;8.006;2023-06-14T01:28:19;100223.56;;;13.57;100.00
24230;BME280;12362;50.004;8.006;2023-06-14T01:30:48;100223.56;;;13.57;100.00
24230;BME280;12362;50.004;8.006;2023-06-14T01:33:20;100223.25;;;13.61;100.00
24230;BME280;12362;50.004;8.006;2023-06-14T01:35:48;100227.44;;;13.63;100.00
24230;BME280;12362;50.004;8.006;2023-06-14T01:38:15;100221.94;;;13.68;100.00
24230;BME280;12362;50.004;8.006;2023-06-14T01:40:43;100223.69;;;13.94;100.00
24230;BME280;12362;50.004;8.006;2023-06-14T01:43:14;100217.53;;;13.95;100.00
24230;BME280;12362;50.004;8.006;2023-06-14T01:45:41;100215.81;;;14.08;100.00
24230;BME280;12362;50.004;8.006;2023-06-14T01:48:08;100221.19;;;13.92;100.00
24230;BME280;12362;50.004;8.006;2023-06-14T01:50:34;100219.06;;;13.85;100.00
24230;BME280;12362;50.004;8.006;2023-06-14T01:53:00;100224.97;;;13.74;100.00
24230;BME280;12362;50.004;8.006;2023-06-14T01:55:26;100220.31;;;13.79;100.00
24230;BME280;12362;50.004;8.006;2023-06-14T01:57:52;100218.53;;;13.80;100.00
24230;BME280;12362;50.004;8.006;2023-06-14T02:00:18;100220.66;;;13.61;100.00
24230;BME280;12362;50.004;8.006;2023-06-14T02:02:44;100225.50;;;13.67;100.00
24230;BME280;12362;50.004;8.006;2023-06-14T02:05:11;100216.97;;;13.51;100.00
24230;BME280;12362;50.004;8.006;2023-06-14T02:07:36;100226.09;;;13.44;100.00
24230;BME280;12362;50.004;8.006;2023-06-14T02:10:03;100232.16;;;13.45;100.00
24230;BME280;12362;50.004;8.006;2023-06-14T02:12:29;100220.22;;;13.55;100.00
24230;BME280;12362;50.004;8.006;2023-06-14T02:14:57;100223.84;;;13.52;100.00
24230;BME280;12362;50.004;8.006;2023-06-14T02:17:23;100232.31;;;13.56;100.00
24230;BME280;12362;50.004;8.006;2023-06-14T02:19:48;100230.97;;;13.36;100.00
24230;BME280;12362;50.004;8.006;2023-06-14T02:22:14;100232.63;;;13.51;100.00
24230;BME280;12362;50.004;8.006;2023-06-14T02:24:41;100233.72;;;13.47;100.00
24230;BME280;12362;50.004;8.006;2023-06-14T02:27:07;100238.25;;;13.31;100.00
24230;BME280;12362;50.004;8.006;2023-06-14T02:29:36;100242.13;;;13.38;100.00
24230;BME280;12362;50.004;8.006;2023-06-14T02:32:04;100238.16;;;13.33;100.00
24230;BME280;12362;50.004;8.006;2023-06-14T02:34:29;100241.06;;;13.14;100.00
24230;BME280;12362;50.004;8.006;2023-06-14T02:36:55;100235.66;;;13.17;100.00
24230;BME280;12362;50.004;8.006;2023-06-14T02:39:21;100234.63;;;13.06;100.00
24230;BME280;12362;50.004;8.006;2023-06-14T02:41:49;100233.34;;;13.13;100.00
24230;BME280;12362;50.004;8.006;2023-06-14T02:44:17;100239.47;;;12.98;100.00
24230;BME280;12362;50.004;8.006;2023-06-14T02:46:43;100239.31;;;13.01;100.00
24230;BME280;12362;50.004;8.006;2023-06-14T02:49:11;100242.66;;;12.89;100.00
24230;BME280;12362;50.004;8.006;2023-06-14T02:51:37;100243.38;;;12.91;100.00
24230;BME280;12362;50.004;8.006;2023-06-14T02:54:02;100241.97;;;12.99;100.00
24230;BME280;12362;50.004;8.006;2023-06-14T02:56:29;100242.66;;;12.89;100.00
24230;BME280;12362;50.004;8.006;2023-06-14T02:58:56;100241.94;;;12.85;100.00
24230;BME280;12362;50.004;8.006;2023-06-14T03:01:22;100243.81;;;12.83;100.00
24230;BME280;12362;50.004;8.006;2023-06-14T03:03:49;100243.72;;;12.71;100.00
24230;BME280;12362;50.004;8.006;2023-06-14T03:06:14;100238.22;;;12.75;100.00
24230;BME280;12362;50.004;8.006;2023-06-14T03:08:43;100246.31;;;12.85;100.00
24230;BME280;12362;50.004;8.006;2023-06-14T03:11:13;100246.78;;;12.77;100.00
24230;BME280;12362;50.004;8.006;2023-06-14T03:13:39;100259.53;;;12.82;100.00
24230;BME280;12362;50.004;8.006;2023-06-14T03:16:06;100250.69;;;12.70;100.00
24230;BME280;12362;50.004;8.006;2023-06-14T03:18:37;100260.81;;;12.61;100.00
24230;BME280;12362;50.004;8.006;2023-06-14T03:21:04;100263.59;;;12.58;100.00
24230;BME280;12362;50.004;8.006;2023-06-14T03:23:31;100264.06;;;12.65;100.00
24230;BME280;12362;50.004;8.006;2023-06-14T03:25:57;100265.94;;;12.63;100.00
24230;BME280;12362;50.004;8.006;2023-06-14T03:28:23;100269.66;;;12.59;100.00
24230;BME280;12362;50.004;8.006;2023-06-14T03:30:49;100265.75;;;12.66;100.00
24230;BME280;12362;50.004;8.006;2023-06-14T03:33:15;100277.47;;;12.59;100.00
24230;BME280;12362;50.004;8.006;2023-06-14T03:35:41;100277.28;;;12.62;100.00
24230;BME280;12362;50.004;8.006;2023-06-14T03:38:08;100278.03;;;12.64;100.00
24230;BME280;12362;50.004;8.006;2023-06-14T03:40:33;100270.69;;;12.70;100.00
24230;BME280;12362;50.004;8.006;2023-06-14T03:43:01;100281.84;;;12.72;100.00
24230;BME280;12362;50.004;8.006;2023-06-14T03:45:27;100277.19;;;12.63;100.00
24230;BME280;12362;50.004;8.006;2023-06-14T03:47:53;100286.53;;;12.67;100.00
24230;BME280;12362;50.004;8.006;2023-06-14T03:50:20;100286.78;;;12.76;100.00
24230;BME280;12362;50.004;8.006;2023-06-14T03:52:48;100289.41;;;12.76;100.00
24230;BME280;12362;50.004;8.006;2023-06-14T03:55:14;100291.06;;;12.77;100.00
24230;BME280;12362;50.004;8.006;2023-06-14T03:57:41;100292.59;;;12.81;100.00
24230;BME280;12362;50.004;8.006;2023-06-14T04:00:11;100302.03;;;12.98;100.00
24230;BME280;12362;50.004;8.006;2023-06-14T04:02:40;100296.44;;;12.90;100.00
24230;BME280;12362;50.004;8.006;2023-06-14T04:05:07;100297.91;;;12.94;100.00
24230;BME280;12362;50.004;8.006;2023-06-14T04:07:36;100306.97;;;13.02;100.00
24230;BME280;12362;50.004;8.006;2023-06-14T04:10:13;100308.38;;;13.08;100.00
24230;BME280;12362;50.004;8.006;2023-06-14T04:12:39;100302.41;;;13.20;100.00
24230;BME280;12362;50.004;8.006;2023-06-14T04:15:06;100302.78;;;13.28;100.00
24230;BME280;12362;50.004;8.006;2023-06-14T04:17:32;100303.81;;;13.39;100.00
24230;BME280;12362;50.004;8.006;2023-06-14T04:19:59;100312.91;;;13.46;100.00
24230;BME280;12362;50.004;8.006;2023-06-14T04:22:26;100306.19;;;13.56;100.00
24230;BME280;12362;50.004;8.006;2023-06-14T04:24:57;100308.47;;;13.74;100.00
24230;BME280;12362;50.004;8.006;2023-06-14T04:27:23;100307.94;;;13.83;100.00
24230;BME280;12362;50.004;8.006;2023-06-14T04:29:51;100309.09;;;13.92;100.00
24230;BME280;12362;50.004;8.006;2023-06-14T04:32:24;100309.47;;;14.14;100.00
24230;BME280;12362;50.004;8.006;2023-06-14T04:34:53;100305.13;;;14.39;100.00
24230;BME280;12362;50.004;8.006;2023-06-14T04:37:21;100308.06;;;14.47;100.00
24230;BME280;12362;50.004;8.006;2023-06-14T04:39:47;100309.19;;;14.69;100.00
24230;BME280;12362;50.004;8.006;2023-06-14T04:42:14;100306.16;;;14.88;100.00
24230;BME280;12362;50.004;8.006;2023-06-14T04:44:43;100313.56;;;14.94;100.00
24230;BME280;12362;50.004;8.006;2023-06-14T04:47:10;100312.75;;;15.06;100.00
24230;BME280;12362;50.004;8.006;2023-06-14T04:49:38;100315.03;;;15.10;100.00
24230;BME280;12362;50.004;8.006;2023-06-14T04:52:05;100316.31;;;15.17;100.00
24230;BME280;12362;50.004;8.006;2023-06-14T04:54:37;100308.47;;;15.42;100.00
24230;BME280;12362;50.004;8.006;2023-06-14T04:57:04;100316.22;;;15.56;100.00
24230;BME280;12362;50.004;8.006;2023-06-14T04:59:31;100321.53;;;15.67;100.00
24230;BME280;12362;50.004;8.006;2023-06-14T05:01:58;100318.38;;;15.74;100.00
24230;BME280;12362;50.004;8.006;2023-06-14T05:04:25;100314.72;;;16.24;100.00
24230;BME280;12362;50.004;8.006;2023-06-14T05:06:52;100314.34;;;16.40;100.00
24230;BME280;12362;50.004;8.006;2023-06-14T05:09:20;100317.03;;;16.51;100.00
24230;BME280;12362;50.004;8.006;2023-06-14T05:11:46;100310.03;;;16.74;100.00
24230;BME280;12362;50.004;8.006;2023-06-14T05:14:14;100312.00;;;16.94;100.00
24230;BME280;12362;50.004;8.006;2023-06-14T05:16:40;100310.03;;;17.19;100.00
24230;BME280;12362;50.004;8.006;2023-06-14T05:19:06;100312.81;;;17.39;100.00
24230;BME280;12362;50.004;8.006;2023-06-14T05:21:32;100306.69;;;17.50;100.00
24230;BME280;12362;50.004;8.006;2023-06-14T05:24:00;100309.22;;;17.51;100.00
24230;BME280;12362;50.004;8.006;2023-06-14T05:26:26;100305.53;;;17.54;100.00
24230;BME280;12362;50.004;8.006;2023-06-14T05:28:55;100304.69;;;17.64;100.00
24230;BME280;12362;50.004;8.006;2023-06-14T05:31:22;100307.97;;;17.77;100.00
24230;BME280;12362;50.004;8.006;2023-06-14T05:33:49;100312.13;;;18.02;100.00
24230;BME280;12362;50.004;8.006;2023-06-14T05:36:15;100311.72;;;18.17;98.71
24230;BME280;12362;50.004;8.006;2023-06-14T05:38:41;100310.63;;;18.30;96.96
24230;BME280;12362;50.004;8.006;2023-06-14T05:41:06;100317.78;;;18.39;95.41
24230;BME280;12362;50.004;8.006;2023-06-14T05:43:31;100317.97;;;18.47;94.82
24230;BME280;12362;50.004;8.006;2023-06-14T05:45:57;100319.13;;;18.54;94.61
24230;BME280;12362;50.004;8.006;2023-06-14T05:48:22;100324.03;;;18.59;89.72
24230;BME280;12362;50.004;8.006;2023-06-14T05:50:48;100321.94;;;18.73;89.53
24230;BME280;12362;50.004;8.006;2023-06-14T05:53:13;100325.22;;;18.86;88.49
24230;BME280;12362;50.004;8.006;2023-06-14T05:55:39;100320.91;;;19.06;85.67
24230;BME280;12362;50.004;8.006;2023-06-14T05:58:04;100320.63;;;19.29;84.61
24230;BME280;12362;50.004;8.006;2023-06-14T06:00:30;100320.28;;;19.43;84.26
24230;BME280;12362;50.004;8.006;2023-06-14T06:02:55;100328.34;;;19.41;87.53
24230;BME280;12362;50.004;8.006;2023-06-14T06:05:23;100327.13;;;19.55;87.73
24230;BME280;12362;50.004;8.006;2023-06-14T06:07:48;100327.94;;;19.55;91.43
24230;BME280;12362;50.004;8.006;2023-06-14T06:10:14;100324.97;;;19.69;82.00
24230;BME280;12362;50.004;8.006;2023-06-14T06:13:05;100323.88;;;20.11;77.10
24230;BME280;12362;50.004;8.006;2023-06-14T06:15:30;100322.91;;;20.21;73.02
24230;BME280;12362;50.004;8.006;2023-06-14T06:17:55;100324.88;;;20.48;68.37
24230;BME280;12362;50.004;8.006;2023-06-14T06:20:25;100315.00;;;20.97;68.32
24230;BME280;12362;50.004;8.006;2023-06-14T06:22:53;100316.50;;;21.18;67.92
24230;BME280;12362;50.004;8.006;2023-06-14T06:25:19;100312.38;;;21.33;65.33
24230;BME280;12362;50.004;8.006;2023-06-14T06:27:45;100316.91;;;21.50;64.08
24230;BME280;12362;50.004;8.006;2023-06-14T06:30:11;100318.31;;;21.81;63.31
24230;BME280;12362;50.004;8.006;2023-06-14T06:32:36;100322.34;;;21.85;62.34
24230;BME280;12362;50.004;8.006;2023-06-14T06:35:02;100320.66;;;22.11;61.92
24230;BME280;12362;50.004;8.006;2023-06-14T06:37:31;100326.63;;;21.96;59.28
24230;BME280;12362;50.004;8.006;2023-06-14T06:39:57;100328.56;;;22.20;60.83
24230;BME280;12362;50.004;8.006;2023-06-14T06:42:22;100322.06;;;22.32;59.97
24230;BME280;12362;50.004;8.006;2023-06-14T06:44:49;100322.09;;;22.50;58.62
24230;BME280;12362;50.004;8.006;2023-06-14T06:47:15;100319.09;;;22.88;57.48
24230;BME280;12362;50.004;8.006;2023-06-14T06:49:40;100325.91;;;22.90;55.80
24230;BME280;12362;50.004;8.006;2023-06-14T06:52:06;100324.06;;;23.08;57.02
24230;BME280;12362;50.004;8.006;2023-06-14T06:54:33;100330.38;;;23.66;55.39
24230;BME280;12362;50.004;8.006;2023-06-14T06:56:59;100333.72;;;23.17;54.10
24230;BME280;12362;50.004;8.006;2023-06-14T06:59:25;100335.50;;;23.34;55.50
24230;BME280;12362;50.004;8.006;2023-06-14T07:01:50;100329.31;;;23.76;53.25
24230;BME280;12362;50.004;8.006;2023-06-14T07:04:16;100331.31;;;23.82;52.79
24230;BME280;12362;50.004;8.006;2023-06-14T07:06:42;100331.50;;;23.88;53.31
24230;BME280;12362;50.004;8.006;2023-06-14T07:09:08;100333.00;;;23.91;51.18
24230;BME280;12362;50.004;8.006;2023-06-14T07:11:42;100314.53;;;24.23;52.34
24230;BME280;12362;50.004;8.006;2023-06-14T07:14:07;100335.16;;;24.53;50.96
24230;BME280;12362;50.004;8.006;2023-06-14T07:16:33;100321.91;;;24.92;48.49
24230;BME280;12362;50.004;8.006;2023-06-14T07:18:59;100327.34;;;25.07;50.04
24230;BME280;12362;50.004;8.006;2023-06-14T07:21:26;100319.66;;;25.52;48.18
24230;BME280;12362;50.004;8.006;2023-06-14T07:23:52;100318.56;;;25.84;48.04
24230;BME280;12362;50.004;8.006;2023-06-14T07:26:18;100324.03;;;26.52;47.56
24230;BME280;12362;50.004;8.006;2023-06-14T07:28:44;100320.25;;;26.46;45.32
24230;BME280;12362;50.004;8.006;2023-06-14T07:31:10;100333.84;;;25.90;46.43
24230;BME280;12362;50.004;8.006;2023-06-14T07:33:36;100333.28;;;25.57;45.81
24230;BME280;12362;50.004;8.006;2023-06-14T07:36:03;100335.44;;;26.07;46.70
24230;BME280;12362;50.004;8.006;2023-06-14T07:38:28;100330.38;;;26.12;44.82
24230;BME280;12362;50.004;8.006;2023-06-14T07:40:54;100335.63;;;25.98;48.35
24230;BME280;12362;50.004;8.006;2023-06-14T07:43:19;100335.56;;;26.14;44.70
24230;BME280;12362;50.004;8.006;2023-06-14T07:45:45;100341.28;;;25.95;46.64
24230;BME280;12362;50.004;8.006;2023-06-14T07:48:11;100346.56;;;26.41;45.51
24230;BME280;12362;50.004;8.006;2023-06-14T07:50:36;100325.69;;;26.89;43.34
24230;BME280;12362;50.004;8.006;2023-06-14T07:53:02;100320.00;;;26.92;43.62
24230;BME280;12362;50.004;8.006;2023-06-14T07:55:27;100330.84;;;26.54;42.70
24230;BME280;12362;50.004;8.006;2023-06-14T07:57:54;100321.22;;;26.90;42.69
24230;BME280;12362;50.004;8.006;2023-06-14T08:00:20;100333.19;;;26.94;43.06
24230;BME280;12362;50.004;8.006;2023-06-14T08:02:46;100332.84;;;26.74;45.11
24230;BME280;12362;50.004;8.006;2023-06-14T08:05:12;100329.13;;;27.35;42.61
24230;BME280;12362;50.004;8.006;2023-06-14T08:07:38;100327.78;;;27.67;43.78
24230;BME280;12362;50.004;8.006;2023-06-14T08:10:05;100326.00;;;27.60;41.94
24230;BME280;12362;50.004;8.006;2023-06-14T08:12:32;100324.53;;;27.58;41.22
24230;BME280;12362;50.004;8.006;2023-06-14T08:14:58;100329.22;;;27.99;43.89
24230;BME280;12362;50.004;8.006;2023-06-14T08:17:24;100325.66;;;27.92;40.94
24230;BME280;12362;50.004;8.006;2023-06-14T08:19:50;100321.66;;;28.02;40.48
24230;BME280;12362;50.004;8.006;2023-06-14T08:22:16;100323.75;;;28.07;40.02
24230;BME280;12362;50.004;8.006;2023-06-14T08:24:43;100309.84;;;28.47;41.79
24230;BME280;12362;50.004;8.006;2023-06-14T08:27:09;100313.63;;;28.94;42.53
24230;BME280;12362;50.004;8.006;2023-06-14T08:29:35;100306.63;;;29.20;40.52
24230;BME280;12362;50.004;8.006;2023-06-14T08:32:01;100317.28;;;27.95;39.52
24230;BME280;12362;50.004;8.006;2023-06-14T08:34:27;100321.88;;;27.86;41.03
24230;BME280;12362;50.004;8.006;2023-06-14T08:36:53;100315.06;;;28.55;42.51
24230;BME280;12362;50.004;8.006;2023-06-14T08:39:19;100301.22;;;29.81;40.64
24230;BME280;12362;50.004;8.006;2023-06-14T08:41:46;100305.63;;;29.55;40.49
24230;BME280;12362;50.004;8.006;2023-06-14T08:44:18;100306.75;;;30.14;38.57
24230;BME280;12362;50.004;8.006;2023-06-14T08:46:43;100316.28;;;29.89;37.05
24230;BME280;12362;50.004;8.006;2023-06-14T08:49:12;100315.44;;;29.75;37.91
24230;BME280;12362;50.004;8.006;2023-06-14T08:51:39;100306.78;;;29.80;37.52
24230;BME280;12362;50.004;8.006;2023-06-14T08:54:06;100304.84;;;29.95;35.92
24230;BME280;12362;50.004;8.006;2023-06-14T08:56:32;100309.81;;;30.11;37.30
24230;BME280;12362;50.004;8.006;2023-06-14T08:58:59;100314.91;;;29.32;36.35
24230;BME280;12362;50.004;8.006;2023-06-14T09:01:28;100319.25;;;29.33;38.66
24230;BME280;12362;50.004;8.006;2023-06-14T09:03:54;100323.34;;;29.29;36.34
24230;BME280;12362;50.004;8.006;2023-06-14T09:06:21;100309.41;;;30.14;38.13
24230;BME280;12362;50.004;8.006;2023-06-14T09:08:48;100324.06;;;28.89;38.13
24230;BME280;12362;50.004;8.006;2023-06-14T09:11:15;100325.03;;;29.09;38.34
24230;BME280;12362;50.004;8.006;2023-06-14T09:13:42;100318.13;;;28.72;34.40
24230;BME280;12362;50.004;8.006;2023-06-14T09:16:08;100324.88;;;29.10;35.31
24230;BME280;12362;50.004;8.006;2023-06-14T09:18:38;100316.97;;;29.57;35.32
24230;BME280;12362;50.004;8.006;2023-06-14T09:21:06;100309.06;;;29.83;36.29
24230;BME280;12362;50.004;8.006;2023-06-14T09:23:43;100307.31;;;31.01;35.59
24230;BME280;12362;50.004;8.006;2023-06-14T09:26:14;100307.72;;;31.24;34.29
24230;BME280;12362;50.004;8.006;2023-06-14T09:28:44;100320.31;;;31.17;33.85
24230;BME280;12362;50.004;8.006;2023-06-14T09:31:11;100319.00;;;31.52;33.98
24230;BME280;12362;50.004;8.006;2023-06-14T09:33:37;100309.25;;;31.77;33.33
24230;BME280;12362;50.004;8.006;2023-06-14T09:36:09;100321.13;;;31.31;33.11
24230;BME280;12362;50.004;8.006;2023-06-14T09:38:35;100325.88;;;30.77;33.31
24230;BME280;12362;50.004;8.006;2023-06-14T09:41:03;100310.75;;;31.73;33.06
24230;BME280;12362;50.004;8.006;2023-06-14T09:43:29;100317.00;;;32.04;31.62
24230;BME280;12362;50.004;8.006;2023-06-14T09:45:55;100326.44;;;30.53;33.78
24230;BME280;12362;50.004;8.006;2023-06-14T09:48:21;100324.19;;;30.69;34.20
24230;BME280;12362;50.004;8.006;2023-06-14T09:50:46;100316.13;;;31.53;33.50
24230;BME280;12362;50.004;8.006;2023-06-14T09:53:14;100319.47;;;30.97;34.15
24230;BME280;12362;50.004;8.006;2023-06-14T09:55:40;100313.53;;;31.91;33.23
24230;BME280;12362;50.004;8.006;2023-06-14T09:58:07;100316.19;;;32.10;33.28
24230;BME280;12362;50.004;8.006;2023-06-14T10:00:34;100326.69;;;31.42;34.03
24230;BME280;12362;50.004;8.006;2023-06-14T10:03:05;100315.97;;;31.16;33.41
24230;BME280;12362;50.004;8.006;2023-06-14T10:05:34;100323.19;;;31.42;34.03
24230;BME280;12362;50.004;8.006;2023-06-14T10:08:07;100312.84;;;31.58;34.33
24230;BME280;12362;50.004;8.006;2023-06-14T10:10:33;100322.16;;;31.30;34.42
24230;BME280;12362;50.004;8.006;2023-06-14T10:12:58;100318.56;;;30.45;35.70
24230;BME280;12362;50.004;8.006;2023-06-14T10:15:32;100327.16;;;29.13;36.66
24230;BME280;12362;50.004;8.006;2023-06-14T10:23:56;100319.38;;;30.39;35.98
24230;BME280;12362;50.004;8.006;2023-06-14T10:26:25;100325.38;;;30.41;36.67
24230;BME280;12362;50.004;8.006;2023-06-14T10:29:00;100315.09;;;31.54;35.32
24230;BME280;12362;50.004;8.006;2023-06-14T10:31:43;100315.16;;;31.98;34.60
24230;BME280;12362;50.004;8.006;2023-06-14T10:34:10;100324.88;;;31.04;36.41
24230;BME280;12362;50.004;8.006;2023-06-14T10:36:35;100334.97;;;28.87;36.18
24230;BME280;12362;50.004;8.006;2023-06-14T10:39:15;100330.78;;;29.94;35.50
24230;BME280;12362;50.004;8.006;2023-06-14T10:41:42;100319.44;;;30.58;34.08
24230;BME280;12362;50.004;8.006;2023-06-14T10:46:59;100319.28;;;31.25;34.89
24230;BME280;12362;50.004;8.006;2023-06-14T10:49:37;100323.59;;;30.93;35.07
24230;BME280;12362;50.004;8.006;2023-06-14T10:52:21;100328.31;;;30.53;32.83
24230;BME280;12362;50.004;8.006;2023-06-14T10:55:09;100324.81;;;31.49;30.13
24230;BME280;12362;50.004;8.006;2023-06-14T10:57:49;100326.69;;;32.18;32.85
24230;BME280;12362;50.004;8.006;2023-06-14T11:00:23;100320.19;;;32.32;32.17
24230;BME280;12362;50.004;8.006;2023-06-14T11:03:22;100325.47;;;31.38;32.45
24230;BME280;12362;50.004;8.006;2023-06-14T11:05:56;100334.75;;;31.29;34.65
24230;BME280;12362;50.004;8.006;2023-06-14T11:11:31;100343.81;;;30.70;33.43
24230;BME280;12362;50.004;8.006;2023-06-14T11:13:59;100337.41;;;31.42;32.18
24230;BME280;12362;50.004;8.006;2023-06-14T11:16:26;100327.53;;;30.97;32.43
24230;BME280;12362;50.004;8.006;2023-06-14T11:18:57;100336.63;;;31.16;32.49
24230;BME280;12362;50.004;8.006;2023-06-14T11:21:24;100348.47;;;30.49;32.21
24230;BME280;12362;50.004;8.006;2023-06-14T11:23:53;100341.53;;;31.51;32.16
24230;BME280;12362;50.004;8.006;2023-06-14T11:26:30;100334.69;;;31.81;31.44
24230;BME280;12362;50.004;8.006;2023-06-14T11:28:57;100330.78;;;31.70;31.76
24230;BME280;12362;50.004;8.006;2023-06-14T11:31:23;100323.31;;;32.66;30.74
24230;BME280;12362;50.004;8.006;2023-06-14T11:33:56;100336.09;;;31.90;31.95
24230;BME280;12362;50.004;8.006;2023-06-14T11:36:23;100329.66;;;31.91;32.00
24230;BME280;12362;50.004;8.006;2023-06-14T11:38:48;100335.59;;;31.04;32.49
24230;BME280;12362;50.004;8.006;2023-06-14T11:41:14;100340.03;;;30.45;34.75
24230;BME280;12362;50.004;8.006;2023-06-14T11:43:40;100337.41;;;31.42;32.00
24230;BME280;12362;50.004;8.006;2023-06-14T11:46:12;100325.63;;;31.69;32.70
24230;BME280;12362;50.004;8.006;2023-06-14T11:48:41;100332.50;;;31.26;34.51
24230;BME280;12362;50.004;8.006;2023-06-14T11:51:07;100324.88;;;31.23;31.64
24230;BME280;12362;50.004;8.006;2023-06-14T11:53:33;100323.78;;;31.50;34.13
24230;BME280;12362;50.004;8.006;2023-06-14T11:55:59;100330.16;;;31.68;33.24
24230;BME280;12362;50.004;8.006;2023-06-14T11:58:25;100325.63;;;31.62;33.47
24230;BME280;12362;50.004;8.006;2023-06-14T12:00:53;100322.63;;;31.96;33.56
24230;BME280;12362;50.004;8.006;2023-06-14T12:03:23;100313.19;;;31.81;31.56
24230;BME280;12362;50.004;8.006;2023-06-14T12:05:49;100326.47;;;31.56;34.08
24230;BME280;12362;50.004;8.006;2023-06-14T12:08:14;100325.25;;;32.16;32.40
24230;BME280;12362;50.004;8.006;2023-06-14T12:10:44;100328.53;;;31.61;32.93
24230;BME280;12362;50.004;8.006;2023-06-14T12:13:10;100324.72;;;32.38;32.63
24230;BME280;12362;50.004;8.006;2023-06-14T12:15:36;100317.63;;;33.30;31.74
24230;BME280;12362;50.004;8.006;2023-06-14T12:18:05;100329.56;;;32.23;30.94
24230;BME280;12362;50.004;8.006;2023-06-14T12:20:38;100328.34;;;32.56;30.19
24230;BME280;12362;50.004;8.006;2023-06-14T12:23:04;100312.66;;;32.78;30.59
24230;BME280;12362;50.004;8.006;2023-06-14T12:25:33;100311.63;;;32.79;32.21
24230;BME280;12362;50.004;8.006;2023-06-14T12:28:07;100316.91;;;33.16;31.20
24230;BME280;12362;50.004;8.006;2023-06-14T12:30:34;100319.09;;;33.01;31.56
24230;BME280;12362;50.004;8.006;2023-06-14T12:33:01;100309.09;;;33.75;30.04
24230;BME280;12362;50.004;8.006;2023-06-14T12:35:27;100318.25;;;32.08;32.17
24230;BME280;12362;50.004;8.006;2023-06-14T12:37:52;100327.25;;;31.76;33.00
24230;BME280;12362;50.004;8.006;2023-06-14T12:40:18;100330.00;;;31.57;33.02
24230;BME280;12362;50.004;8.006;2023-06-14T12:42:44;100324.56;;;32.57;31.26
24230;BME280;12362;50.004;8.006;2023-06-14T12:45:12;100313.84;;;32.88;29.56
24230;BME280;12362;50.004;8.006;2023-06-14T12:47:37;100314.75;;;32.76;30.11
24230;BME280;12362;50.004;8.006;2023-06-14T12:50:03;100323.53;;;32.65;31.48
24230;BME280;12362;50.004;8.006;2023-06-14T12:52:28;100320.69;;;33.33;31.03
24230;BME280;12362;50.004;8.006;2023-06-14T12:54:53;100339.25;;;30.64;31.94
24230;BME280;12362;50.004;8.006;2023-06-14T12:57:19;100351.03;;;29.69;33.22
24230;BME280;12362;50.004;8.006;2023-06-14T12:59:44;100325.41;;;31.70;32.07
24230;BME280;12362;50.004;8.006;2023-06-14T13:02:13;100315.91;;;32.62;31.95